createdAt,value
2018-08-18T00:00:18.214Z,21.10
2018-08-18T00:02:46.820Z,20.67
2018-08-18T00:05:16.556Z,21.80
2018-08-18T00:07:45.157Z,22.87
2018-08-18T00:10:16.506Z,22.07
2018-08-18T00:12:45.123Z,23.00
2018-08-18T00:15:13.683Z,22.73
2018-08-18T00:17:42.263Z,21.20
2018-08-18T00:20:15.917Z,24.00
2018-08-18T00:22:44.542Z,20.43
2018-08-18T00:25:13.151Z,21.90
2018-08-18T00:27:41.723Z,22.40
2018-08-18T00:30:16.016Z,22.97
2018-08-18T00:32:44.867Z,22.37
2018-08-18T00:35:13.434Z,22.67
2018-08-18T00:37:42.006Z,21.50
2018-08-18T00:40:11.595Z,22.73
2018-08-18T00:42:40.590Z,23.87
2018-08-18T00:45:10.803Z,24.37
2018-08-18T00:47:39.910Z,23.83
2018-08-18T00:50:09.506Z,23.40
2018-08-18T00:52:38.418Z,22.73
2018-08-18T00:55:07.030Z,23.00
2018-08-18T00:57:35.636Z,23.23
2018-08-18T01:00:05.689Z,24.20
2018-08-18T01:02:34.247Z,25.37
2018-08-18T01:05:03.175Z,23.03
2018-08-18T01:07:32.631Z,25.87
2018-08-18T01:10:01.590Z,24.70
2018-08-18T01:12:30.358Z,27.90
2018-08-18T01:14:58.838Z,26.30
2018-08-18T01:17:27.718Z,26.70
2018-08-18T01:19:57.622Z,27.63
2018-08-18T01:22:26.249Z,27.70
2018-08-18T01:24:54.818Z,25.77
2018-08-18T01:27:23.578Z,25.43
2018-08-18T01:29:57.577Z,26.50
2018-08-18T01:32:26.222Z,28.20
2018-08-18T01:34:54.935Z,26.20
2018-08-18T01:37:23.457Z,27.90
2018-08-18T01:39:54.119Z,27.70
2018-08-18T01:42:23.054Z,25.90
2018-08-18T01:44:53.124Z,30.03
2018-08-18T01:47:21.775Z,28.60
2018-08-18T01:49:50.396Z,28.23
2018-08-18T01:52:22.247Z,28.27
2018-08-18T01:54:50.805Z,29.13
2018-08-18T01:57:20.398Z,28.23
2018-08-18T01:59:49.172Z,29.57
2018-08-18T02:02:20.951Z,28.90
2018-08-18T02:04:50.054Z,29.73
2018-08-18T02:07:28.579Z,29.80
2018-08-18T02:09:57.357Z,30.03
2018-08-18T02:12:26.446Z,30.13
2018-08-18T02:14:55.426Z,29.10
2018-08-18T02:17:33.140Z,31.20
2018-08-18T02:20:01.856Z,27.90
2018-08-18T02:22:31.275Z,27.20
2018-08-18T02:24:59.906Z,30.57
2018-08-18T02:27:28.469Z,30.80
2018-08-18T02:30:08.177Z,30.60
2018-08-18T02:32:38.431Z,30.77
2018-08-18T02:35:07.742Z,29.47
2018-08-18T02:37:36.420Z,31.40
2018-08-18T02:40:12.729Z,31.80
2018-08-18T02:42:41.308Z,32.33
2018-08-18T02:45:10.641Z,30.30
2018-08-18T02:47:39.271Z,27.30
2018-08-18T02:50:08.619Z,27.77
2018-08-18T02:52:37.524Z,28.30
2018-08-18T02:55:08.411Z,29.20
2018-08-18T02:57:40.183Z,27.60
2018-08-18T03:00:14.659Z,30.77
2018-08-18T03:02:43.220Z,27.77
2018-08-18T03:05:11.815Z,28.63
2018-08-18T03:07:44.672Z,28.17
2018-08-18T03:10:18.510Z,28.60
2018-08-18T03:12:47.343Z,29.73
2018-08-18T03:15:34.596Z,27.30
2018-08-18T03:18:03.212Z,31.07
2018-08-18T03:20:31.730Z,29.50
2018-08-18T03:23:00.299Z,30.07
2018-08-18T03:25:39.946Z,28.90
2018-08-18T03:28:08.481Z,29.60
2018-08-18T03:30:37.040Z,29.70
2018-08-18T03:33:05.925Z,29.83
2018-08-18T03:35:34.454Z,27.90
2018-08-18T03:38:03.050Z,30.80
2018-08-18T03:40:31.579Z,30.10
2018-08-18T03:43:00.139Z,32.27
2018-08-18T03:45:28.731Z,30.30
2018-08-18T03:47:57.259Z,30.93
2018-08-18T03:50:39.919Z,31.20
2018-08-18T03:53:08.500Z,32.10
2018-08-18T03:55:39.182Z,31.00
2018-08-18T03:58:07.763Z,32.67
2018-08-18T04:00:36.360Z,31.00
2018-08-18T04:03:05.100Z,31.27
2018-08-18T04:05:33.623Z,34.10
2018-08-18T04:08:02.186Z,31.87
2018-08-18T04:10:30.749Z,31.07
2018-08-18T04:13:00.450Z,30.77
2018-08-18T04:15:29.123Z,30.50
2018-08-18T04:17:57.646Z,28.97
2018-08-18T04:20:26.210Z,31.60
2018-08-18T04:22:54.771Z,30.27
2018-08-18T04:25:23.477Z,31.00
2018-08-18T04:27:52.004Z,31.70
2018-08-18T04:30:21.634Z,31.10
2018-08-18T04:32:59.536Z,28.93
2018-08-18T04:35:29.054Z,30.43
2018-08-18T04:37:58.503Z,30.03
2018-08-18T04:40:27.747Z,29.87
2018-08-18T04:42:56.801Z,30.27
2018-08-18T04:45:25.438Z,29.40
2018-08-18T04:47:54.097Z,32.33
2018-08-18T04:50:23.046Z,33.83
2018-08-18T04:52:53.490Z,33.17
2018-08-18T04:55:22.192Z,33.33
2018-08-18T04:57:50.871Z,33.00
2018-08-18T05:00:19.475Z,30.67
2018-08-18T05:02:57.654Z,30.80
2018-08-18T05:05:31.050Z,32.67
2018-08-18T05:08:00.582Z,33.50
2018-08-18T05:10:29.512Z,30.73
2018-08-18T05:12:58.082Z,31.70
2018-08-18T05:15:26.652Z,30.20
2018-08-18T05:17:55.228Z,30.60
2018-08-18T05:20:25.397Z,29.67
2018-08-18T05:22:53.990Z,27.90
2018-08-18T05:25:29.382Z,29.90
2018-08-18T05:27:58.330Z,27.13
2018-08-18T05:30:26.908Z,25.23
2018-08-18T05:32:55.498Z,28.13
2018-08-18T05:35:24.044Z,27.97
2018-08-18T05:37:52.638Z,27.70
2018-08-18T05:40:21.228Z,28.40
2018-08-18T05:42:49.746Z,29.77
2018-08-18T05:45:26.723Z,29.80
2018-08-18T05:47:55.386Z,28.50
2018-08-18T05:50:25.538Z,29.23
2018-08-18T05:52:57.760Z,27.37
2018-08-18T05:55:26.632Z,25.00
2018-08-18T05:57:55.222Z,28.53
2018-08-18T06:00:25.099Z,28.10
2018-08-18T06:02:58.754Z,27.23
2018-08-18T06:05:31.061Z,24.20
2018-08-18T06:08:00.885Z,25.83
2018-08-18T06:10:29.619Z,27.60
2018-08-18T06:12:59.875Z,27.30
2018-08-18T06:15:28.503Z,28.07
2018-08-18T06:17:57.046Z,28.67
2018-08-18T06:20:25.696Z,28.77
2018-08-18T06:22:54.236Z,29.13
2018-08-18T06:25:22.846Z,26.73
2018-08-18T06:27:51.416Z,28.00
2018-08-18T06:30:20.052Z,28.97
2018-08-18T06:32:48.646Z,29.03
2018-08-18T06:35:17.214Z,31.47
2018-08-18T06:37:49.995Z,32.90
2018-08-18T06:41:07.129Z,31.90
2018-08-18T06:43:35.687Z,31.20
2018-08-18T06:46:04.386Z,31.07
2018-08-18T06:48:34.922Z,32.53
2018-08-18T06:51:03.672Z,31.60
2018-08-18T06:53:37.641Z,32.97
2018-08-18T06:56:06.623Z,30.90
2018-08-18T06:58:35.403Z,32.37
2018-08-18T07:01:04.015Z,31.30
2018-08-18T07:04:43.892Z,33.43
2018-08-18T07:07:12.463Z,32.77
2018-08-18T07:09:41.192Z,32.00
2018-08-18T07:12:09.728Z,31.50
2018-08-18T07:14:38.261Z,31.07
2018-08-18T07:17:06.907Z,29.40
2018-08-18T07:19:35.452Z,29.37
2018-08-18T07:22:03.979Z,29.80
2018-08-18T07:24:32.554Z,30.67
2018-08-18T07:27:01.143Z,29.47
2018-08-18T07:29:39.783Z,29.53
2018-08-18T07:32:09.051Z,29.63
2018-08-18T07:34:37.566Z,29.00
2018-08-18T07:37:06.693Z,27.30
2018-08-18T07:39:35.236Z,29.47
2018-08-18T07:42:03.862Z,29.27
2018-08-18T07:44:32.467Z,28.37
2018-08-18T07:47:00.987Z,26.43
2018-08-18T07:49:29.547Z,28.20
2018-08-18T07:51:58.130Z,27.53
2018-08-18T07:54:26.658Z,26.43
2018-08-18T07:56:55.199Z,26.80
2018-08-18T07:59:23.774Z,27.03
2018-08-18T08:01:52.334Z,27.07
2018-08-18T08:04:20.898Z,25.93
2018-08-18T08:06:49.435Z,25.17
2018-08-18T08:09:17.972Z,25.17
2018-08-18T08:11:46.535Z,27.30
2018-08-18T08:14:15.053Z,27.93
2018-08-18T08:16:43.660Z,27.40
2018-08-18T08:19:12.206Z,27.00
2018-08-18T08:21:40.795Z,25.20
2018-08-18T08:24:09.371Z,25.83
2018-08-18T08:26:37.954Z,24.97
2018-08-18T08:29:06.588Z,24.93
2018-08-18T08:31:35.196Z,25.67
2018-08-18T08:34:03.799Z,26.60
2018-08-18T08:36:32.478Z,23.67
2018-08-18T08:39:01.106Z,25.70
2018-08-18T08:41:31.521Z,25.63
2018-08-18T08:44:00.271Z,26.17
2018-08-18T08:46:28.838Z,24.20
2018-08-18T08:48:59.887Z,24.10
2018-08-18T08:51:28.475Z,24.77
2018-08-18T08:53:58.424Z,23.90
2018-08-18T08:56:32.366Z,22.60
2018-08-18T08:59:00.992Z,22.57
2018-08-18T09:01:29.590Z,23.23
2018-08-18T09:03:58.153Z,22.73
2018-08-18T09:06:26.742Z,24.20
2018-08-18T09:08:58.187Z,24.40
2018-08-18T09:11:27.663Z,23.60
2018-08-18T09:14:05.339Z,24.30
2018-08-18T09:16:34.252Z,26.00
2018-08-18T09:19:02.830Z,25.40
2018-08-18T09:21:39.263Z,23.53
2018-08-18T09:24:07.889Z,23.40
2018-08-18T09:26:41.585Z,25.57
2018-08-18T09:29:10.295Z,25.00
2018-08-18T09:31:39.000Z,24.80
2018-08-18T09:34:07.682Z,25.13
2018-08-18T09:36:36.280Z,25.63
2018-08-18T09:39:08.916Z,26.60
2018-08-18T09:41:38.126Z,24.77
2018-08-18T09:44:06.843Z,27.20
2018-08-18T09:46:35.415Z,25.10
2018-08-18T09:49:04.051Z,26.93
2018-08-18T09:51:32.666Z,28.00
2018-08-18T09:54:01.254Z,26.00
2018-08-18T09:56:29.819Z,25.10
2018-08-18T09:58:58.382Z,25.83
2018-08-18T10:01:26.994Z,24.50
2018-08-18T10:03:55.862Z,25.63
2018-08-18T10:06:24.466Z,27.30
2018-08-18T10:08:53.028Z,26.13
2018-08-18T10:11:21.569Z,23.80
2018-08-18T10:13:50.142Z,23.20
2018-08-18T10:16:18.785Z,27.10
2018-08-18T10:18:48.598Z,24.67
2018-08-18T10:21:17.172Z,25.50
2018-08-18T10:23:45.741Z,23.80
2018-08-18T10:26:14.274Z,26.00
2018-08-18T10:28:42.798Z,24.33
2018-08-18T10:31:11.400Z,23.30
2018-08-18T10:33:39.943Z,23.30
2018-08-18T10:36:08.555Z,21.60
2018-08-18T10:38:37.162Z,22.77
2018-08-18T10:41:05.759Z,21.80
2018-08-18T10:43:34.365Z,23.37
2018-08-18T10:46:03.006Z,24.20
2018-08-18T10:48:31.576Z,21.07
2018-08-18T10:51:25.257Z,19.90
2018-08-18T10:53:54.307Z,22.50
2018-08-18T10:56:23.418Z,23.23
2018-08-18T10:59:19.488Z,20.87
2018-08-18T11:02:08.005Z,23.03
2018-08-18T11:04:37.447Z,20.70
2018-08-18T11:07:06.310Z,22.47
2018-08-18T11:09:34.881Z,18.67
2018-08-18T11:12:03.903Z,18.03
2018-08-18T11:14:32.413Z,17.13
2018-08-18T11:17:00.958Z,17.83
2018-08-18T11:19:29.554Z,19.30
2018-08-18T11:22:09.084Z,19.90
2018-08-18T11:24:37.642Z,18.23
2018-08-18T11:27:06.224Z,18.80
2018-08-18T11:29:34.834Z,18.90
2018-08-18T11:32:03.457Z,18.13
2018-08-18T11:34:32.014Z,17.53
2018-08-18T11:37:06.503Z,17.03
2018-08-18T11:39:35.043Z,16.90
2018-08-18T11:42:03.639Z,15.30
2018-08-18T11:44:32.278Z,14.43
2018-08-18T11:47:00.943Z,14.57
2018-08-18T11:49:29.436Z,14.77
2018-08-18T11:51:58.076Z,14.00
2018-08-18T11:54:26.643Z,13.87
2018-08-18T11:56:55.756Z,15.80
2018-08-18T11:59:24.342Z,15.43
2018-08-18T12:01:54.636Z,16.80
2018-08-18T12:04:23.838Z,16.30
2018-08-18T12:06:57.795Z,15.77
2018-08-18T12:09:26.700Z,15.63
2018-08-18T12:11:55.424Z,14.30
2018-08-18T12:14:23.963Z,14.57
2018-08-18T12:16:52.626Z,13.40
2018-08-18T12:19:21.195Z,16.30
2018-08-18T12:21:49.767Z,15.37
2018-08-18T12:24:19.829Z,15.03
2018-08-18T12:26:59.455Z,13.53
2018-08-18T12:29:30.128Z,14.23
2018-08-18T12:31:58.993Z,13.07
2018-08-18T12:34:27.594Z,15.63
2018-08-18T12:36:56.397Z,16.50
2018-08-18T12:39:24.804Z,13.30
2018-08-18T12:41:53.393Z,12.40
2018-08-18T12:44:26.147Z,12.27
2018-08-18T12:47:25.526Z,11.63
2018-08-18T12:49:54.564Z,12.73
2018-08-18T12:52:23.119Z,11.20
2018-08-18T12:54:51.687Z,12.00
2018-08-18T12:57:31.243Z,10.63
2018-08-18T12:59:59.814Z,10.43
2018-08-18T13:02:38.254Z,11.10
2018-08-18T13:05:06.947Z,11.63
2018-08-18T13:07:39.703Z,10.70
2018-08-18T13:10:14.623Z,10.53
2018-08-18T13:12:43.185Z,11.20
2018-08-18T13:15:11.787Z,10.90
2018-08-18T13:17:40.358Z,10.70
2018-08-18T13:20:08.979Z,10.13
2018-08-18T13:22:37.536Z,9.47
2018-08-18T13:25:06.842Z,11.47
2018-08-18T13:27:39.896Z,10.07
2018-08-18T13:30:08.535Z,10.27
2018-08-18T13:32:37.104Z,8.80
2018-08-18T13:35:05.753Z,9.70
2018-08-18T13:37:34.862Z,8.47
2018-08-18T13:40:03.576Z,9.17
2018-08-18T13:42:32.163Z,9.57
2018-08-18T13:45:00.754Z,9.30
2018-08-18T13:47:29.355Z,9.10
2018-08-18T13:50:03.111Z,8.80
2018-08-18T13:52:36.753Z,9.27
2018-08-18T13:55:05.385Z,8.03
2018-08-18T13:57:33.953Z,8.00
2018-08-18T14:00:02.557Z,7.67
2018-08-18T14:02:31.098Z,8.37
2018-08-18T14:04:59.639Z,7.57
2018-08-18T14:07:28.272Z,9.40
2018-08-18T14:10:00.568Z,9.90
2018-08-18T14:12:29.942Z,8.77
2018-08-18T14:14:58.510Z,8.60
2018-08-18T14:17:27.083Z,8.43
2018-08-18T14:19:55.655Z,8.67
2018-08-18T14:22:24.198Z,8.57
2018-08-18T14:24:52.794Z,8.07
2018-08-18T14:27:22.687Z,7.97
2018-08-18T14:29:51.298Z,8.50
2018-08-18T14:32:25.127Z,8.23
2018-08-18T14:35:12.222Z,7.63
2018-08-18T14:37:42.114Z,8.20
2018-08-18T14:40:13.522Z,8.03
2018-08-18T14:42:42.113Z,8.53
2018-08-18T14:45:14.371Z,8.20
2018-08-18T14:47:43.087Z,9.00
2018-08-18T14:50:20.109Z,8.37
2018-08-18T14:52:48.743Z,9.20
2018-08-18T14:55:17.565Z,7.30
2018-08-18T14:57:51.339Z,8.30
2018-08-18T15:00:20.474Z,10.77
2018-08-18T15:02:49.060Z,20.90
2018-08-18T15:05:17.718Z,13.27
2018-08-18T15:07:49.245Z,9.47
2018-08-18T15:10:33.113Z,8.57
2018-08-18T15:13:02.249Z,9.40
2018-08-18T15:15:31.732Z,8.83
2018-08-18T15:18:03.625Z,7.80
2018-08-18T15:20:36.325Z,8.67
2018-08-18T15:23:06.063Z,8.63
2018-08-18T15:25:35.593Z,8.67
2018-08-18T15:28:05.523Z,8.00
2018-08-18T15:30:35.264Z,8.13
2018-08-18T15:33:03.911Z,8.50
2018-08-18T15:35:35.626Z,7.60
2018-08-18T15:38:04.792Z,7.43
2018-08-18T15:40:33.670Z,8.50
2018-08-18T15:43:02.560Z,8.20
2018-08-18T15:45:31.443Z,7.50
2018-08-18T15:48:00.133Z,7.77
2018-08-18T15:50:29.011Z,7.80
2018-08-18T15:52:57.576Z,7.47
2018-08-18T15:55:26.106Z,7.70
2018-08-18T15:57:54.659Z,7.70
2018-08-18T16:00:31.338Z,7.20
2018-08-18T16:03:00.467Z,8.17
2018-08-18T16:05:30.280Z,6.73
2018-08-18T16:07:58.904Z,8.50
2018-08-18T16:10:27.434Z,7.37
2018-08-18T16:12:56.044Z,11.67
2018-08-18T16:15:25.523Z,8.13
2018-08-18T16:17:54.458Z,7.77
2018-08-18T16:20:25.157Z,6.93
2018-08-18T16:22:57.091Z,7.80
2018-08-18T16:25:34.662Z,7.80
2018-08-18T16:28:04.029Z,7.20
2018-08-18T16:30:32.722Z,7.80
2018-08-18T16:33:18.802Z,7.13
2018-08-18T16:35:47.532Z,7.83
2018-08-18T16:38:16.186Z,7.47
2018-08-18T16:40:44.756Z,7.60
2018-08-18T16:43:14.440Z,8.03
2018-08-18T16:45:42.982Z,7.00
2018-08-18T16:48:12.852Z,7.17
2018-08-18T16:50:42.114Z,7.20
2018-08-18T16:53:12.058Z,7.23
2018-08-18T16:55:42.104Z,7.17
2018-08-18T16:58:10.668Z,7.93
2018-08-18T17:00:57.398Z,8.53
2018-08-18T17:03:30.466Z,7.10
2018-08-18T17:06:00.031Z,7.43
2018-08-18T17:08:28.918Z,8.17
2018-08-18T17:10:57.711Z,8.40
2018-08-18T17:13:31.443Z,8.47
2018-08-18T17:16:00.103Z,7.73
2018-08-18T17:18:28.671Z,9.17
2018-08-18T17:21:00.456Z,7.43
2018-08-18T17:23:30.927Z,8.10
2018-08-18T17:25:59.538Z,8.50
2018-08-18T17:28:29.072Z,8.53
2018-08-18T17:30:57.651Z,8.23
2018-08-18T17:33:27.448Z,8.57
2018-08-18T17:35:56.025Z,8.40
2018-08-18T17:38:24.566Z,9.03
2018-08-18T17:40:53.162Z,8.70
2018-08-18T17:43:21.849Z,9.23
2018-08-18T17:45:53.081Z,8.70
2018-08-18T17:48:22.679Z,9.20
2018-08-18T17:50:51.794Z,8.33
2018-08-18T17:53:20.427Z,8.60
2018-08-18T17:55:57.215Z,8.17
2018-08-18T17:58:26.620Z,8.87
2018-08-18T18:00:55.234Z,7.90
2018-08-18T18:03:23.756Z,9.47
2018-08-18T18:05:52.791Z,10.37
2018-08-18T18:08:21.320Z,9.47
2018-08-18T18:10:49.968Z,10.57
2018-08-18T18:13:23.938Z,10.40
2018-08-18T18:15:52.609Z,9.20
2018-08-18T18:18:22.043Z,10.77
2018-08-18T18:20:51.981Z,9.67
2018-08-18T18:23:20.846Z,9.83
2018-08-18T18:25:49.406Z,9.80
2018-08-18T18:28:18.023Z,9.47
2018-08-18T18:30:46.670Z,9.00
2018-08-18T18:33:15.284Z,8.90
2018-08-18T18:35:43.914Z,9.27
2018-08-18T18:38:12.487Z,9.80
2018-08-18T18:40:43.321Z,8.47
2018-08-18T18:43:11.960Z,9.73
2018-08-18T18:45:40.587Z,8.67
2018-08-18T18:48:12.151Z,9.97
2018-08-18T18:50:40.827Z,9.90
2018-08-18T18:53:09.866Z,10.87
2018-08-18T18:55:45.453Z,9.40
2018-08-18T18:58:14.734Z,10.17
2018-08-18T19:00:55.330Z,10.33
2018-08-18T19:03:23.928Z,10.30
2018-08-18T19:05:52.572Z,9.73
2018-08-18T19:08:22.180Z,9.63
2018-08-18T19:10:50.747Z,9.90
2018-08-18T19:13:19.291Z,9.13
2018-08-18T19:15:47.887Z,8.97
2018-08-18T19:18:16.413Z,9.97
2018-08-18T19:20:44.994Z,9.07
2018-08-18T19:23:16.887Z,9.90
2018-08-18T19:25:46.702Z,9.40
2018-08-18T19:28:18.157Z,9.20
2018-08-18T19:30:46.730Z,10.50
2018-08-18T19:33:15.998Z,9.73
2018-08-18T19:35:45.745Z,9.80
2018-08-18T19:38:14.811Z,10.37
2018-08-18T19:40:44.994Z,9.93
2018-08-18T19:43:19.286Z,9.97
2018-08-18T19:45:48.175Z,10.10
2018-08-18T19:48:20.270Z,9.83
2018-08-18T19:50:54.966Z,9.07
2018-08-18T19:53:29.472Z,9.50
2018-08-18T19:55:59.193Z,9.80
2018-08-18T19:58:28.365Z,10.10
2018-08-18T20:00:56.946Z,9.60
2018-08-18T20:03:25.954Z,10.40
2018-08-18T20:05:54.547Z,9.80
2018-08-18T20:08:24.647Z,10.47
2018-08-18T20:11:00.618Z,10.10
2018-08-18T20:13:30.411Z,11.20
2018-08-18T20:16:02.423Z,10.90
2018-08-18T20:18:32.416Z,11.50
2018-08-18T20:21:00.926Z,10.60
2018-08-18T20:23:29.515Z,10.10
2018-08-18T20:25:58.082Z,10.90
2018-08-18T20:28:26.687Z,11.03
2018-08-18T20:30:55.210Z,9.60
2018-08-18T20:33:23.771Z,10.50
2018-08-18T20:35:52.372Z,11.33
2018-08-18T20:38:20.930Z,10.53
2018-08-18T20:40:49.454Z,10.90
2018-08-18T20:43:18.051Z,11.20
2018-08-18T20:45:48.511Z,12.10
2018-08-18T20:48:18.809Z,10.43
2018-08-18T20:50:47.397Z,11.83
2018-08-18T20:53:16.797Z,11.80
2018-08-18T20:56:02.980Z,11.43
2018-08-18T20:58:34.269Z,12.00
2018-08-18T21:01:03.219Z,13.17
2018-08-18T21:03:46.912Z,11.70
2018-08-18T21:06:16.548Z,12.63
2018-08-18T21:08:45.108Z,12.37
2018-08-18T21:11:13.794Z,11.87
2018-08-18T21:13:42.456Z,12.17
2018-08-18T21:16:11.018Z,11.60
2018-08-18T21:18:39.584Z,11.20
2018-08-18T21:21:24.221Z,11.10
2018-08-18T21:23:53.163Z,11.73
2018-08-18T21:26:21.778Z,13.00
2018-08-18T21:28:52.798Z,12.97
2018-08-18T21:31:27.140Z,12.80
2018-08-18T21:33:57.088Z,12.60
2018-08-18T21:36:25.618Z,12.80
2018-08-18T21:38:54.210Z,12.70
2018-08-18T21:41:22.858Z,12.63
2018-08-18T21:43:51.400Z,14.07
2018-08-18T21:46:20.411Z,13.90
2018-08-18T21:48:51.153Z,13.67
2018-08-18T21:51:22.901Z,13.17
2018-08-18T21:53:51.568Z,13.27
2018-08-18T21:56:20.398Z,13.80
2018-08-18T21:58:49.295Z,13.83
2018-08-18T22:01:20.047Z,13.47
2018-08-18T22:03:49.603Z,13.70
2018-08-18T22:06:18.378Z,14.00
2018-08-18T22:08:47.026Z,13.70
2018-08-18T22:11:18.019Z,13.27
2018-08-18T22:13:53.537Z,13.97
2018-08-18T22:16:22.758Z,14.83
2018-08-18T22:18:56.994Z,14.03
2018-08-18T22:21:28.581Z,14.50
2018-08-18T22:23:59.399Z,15.50
2018-08-18T22:26:28.238Z,13.63
2018-08-18T22:29:04.795Z,14.87
2018-08-18T22:31:34.063Z,13.93
2018-08-18T22:34:03.726Z,14.33
2018-08-18T22:36:34.537Z,14.03
2018-08-18T22:39:04.551Z,14.70
2018-08-18T22:41:33.126Z,15.83
2018-08-18T22:44:01.635Z,15.00
2018-08-18T22:46:30.314Z,15.67
2018-08-18T22:48:58.983Z,15.33
2018-08-18T22:51:27.561Z,13.93
2018-08-18T22:53:56.934Z,13.67
2018-08-18T22:56:30.743Z,13.33
2018-08-18T22:59:02.992Z,14.07
2018-08-18T23:01:32.003Z,14.00
2018-08-18T23:04:01.702Z,13.90
2018-08-18T23:06:32.422Z,13.73
2018-08-18T23:09:01.831Z,13.87
2018-08-18T23:11:30.431Z,13.33
2018-08-18T23:13:58.995Z,13.83
2018-08-18T23:16:27.570Z,13.40
2018-08-18T23:18:56.178Z,14.47
2018-08-18T23:21:28.702Z,13.10
2018-08-18T23:23:58.372Z,14.17
2018-08-18T23:26:26.945Z,13.67
2018-08-18T23:28:55.506Z,14.47
2018-08-18T23:31:24.134Z,13.70
2018-08-18T23:33:52.799Z,13.50
2018-08-18T23:36:21.375Z,14.10
2018-08-18T23:38:55.093Z,12.97
2018-08-18T23:41:23.692Z,14.00
2018-08-18T23:43:52.673Z,13.77
2018-08-18T23:46:21.234Z,13.97
2018-08-18T23:48:49.787Z,13.73
2018-08-18T23:51:20.224Z,13.83
2018-08-18T23:53:48.796Z,12.70
2018-08-18T23:56:17.387Z,13.50
2018-08-18T23:58:45.954Z,13.07
